createdAt,value
2024-01-20T00:00:19.211Z,100584.27
2024-01-20T00:03:10.905Z,100586.16
2024-01-20T00:05:42.971Z,100587.85
2024-01-20T00:08:14.831Z,100586.46
2024-01-20T00:10:46.938Z,100579.90
2024-01-20T00:13:18.865Z,100582.80
2024-01-20T00:15:50.477Z,100583.29
2024-01-20T00:18:23.160Z,100582.58
2024-01-20T00:20:55.010Z,100589.04
2024-01-20T00:23:26.852Z,100591.90
2024-01-20T00:25:58.882Z,100587.04
2024-01-20T00:28:31.116Z,100590.71
2024-01-20T00:31:03.124Z,100587.93
2024-01-20T00:33:35.166Z,100591.64
2024-01-20T00:36:09.106Z,100597.65
2024-01-20T00:38:43.201Z,100601.89
2024-01-20T00:41:15.363Z,100604.45
2024-01-20T00:43:47.934Z,100608.73
2024-01-20T00:46:19.618Z,100608.10
2024-01-20T00:48:51.285Z,100604.38
2024-01-20T00:51:22.989Z,100609.88
2024-01-20T00:53:54.687Z,100609.92
2024-01-20T00:56:26.749Z,100606.86
2024-01-20T00:58:59.171Z,100607.30
2024-01-20T01:01:31.052Z,100616.50
2024-01-20T01:04:02.781Z,100612.37
2024-01-20T01:06:34.507Z,100615.20
2024-01-20T01:09:06.374Z,100610.64
2024-01-20T01:11:38.106Z,100609.96
2024-01-20T01:14:10.098Z,100613.27
2024-01-20T01:16:41.744Z,100613.38
2024-01-20T01:19:14.393Z,100614.68
2024-01-20T01:21:45.904Z,100621.12
2024-01-20T01:24:17.667Z,100620.11
2024-01-20T01:26:49.716Z,100618.71
2024-01-20T01:29:21.492Z,100624.91
2024-01-20T01:31:53.207Z,100625.86
2024-01-20T01:34:24.812Z,100629.27
2024-01-20T01:36:56.735Z,100630.67
2024-01-20T01:39:28.264Z,100635.11
2024-01-20T01:41:59.884Z,100635.31
2024-01-20T01:44:31.576Z,100638.35
2024-01-20T01:47:03.431Z,100640.04
2024-01-20T01:49:35.615Z,100642.40
2024-01-20T01:52:09.877Z,100642.91
2024-01-20T01:54:42.016Z,100639.65
2024-01-20T01:57:16.438Z,100638.54
2024-01-20T01:59:48.481Z,100638.02
2024-01-20T02:02:20.061Z,100635.97
2024-01-20T02:04:51.728Z,100634.77
2024-01-20T02:07:23.953Z,100638.95
2024-01-20T02:09:55.926Z,100648.09
2024-01-20T02:12:28.672Z,100647.31
2024-01-20T02:15:01.671Z,100647.32
2024-01-20T02:17:33.340Z,100644.38
2024-01-20T02:20:06.132Z,100641.79
2024-01-20T02:22:37.631Z,100647.11
2024-01-20T02:25:10.391Z,100652.70
2024-01-20T02:27:42.190Z,100656.52
2024-01-20T02:30:14.750Z,100656.72
2024-01-20T02:32:46.395Z,100661.39
2024-01-20T02:35:20.102Z,100662.52
2024-01-20T02:37:52.166Z,100666.54
2024-01-20T02:40:23.985Z,100671.29
2024-01-20T02:42:55.569Z,100666.23
2024-01-20T02:45:27.371Z,100667.64
2024-01-20T02:47:59.915Z,100669.21
2024-01-20T02:50:32.735Z,100672.03
2024-01-20T02:53:04.901Z,100672.16
2024-01-20T02:55:36.844Z,100668.31
2024-01-20T02:58:08.425Z,100669.29
2024-01-20T03:00:40.452Z,100675.77
2024-01-20T03:03:12.184Z,100675.67
2024-01-20T03:05:44.135Z,100678.42
2024-01-20T03:08:16.124Z,100682.42
2024-01-20T03:10:47.975Z,100680.45
2024-01-20T03:13:19.811Z,100690.40
2024-01-20T03:15:51.535Z,100695.80
2024-01-20T03:18:23.159Z,100702.65
2024-01-20T03:20:55.206Z,100705.56
2024-01-20T03:23:27.038Z,100706.09
2024-01-20T03:25:58.767Z,100709.52
2024-01-20T03:28:30.587Z,100708.80
2024-01-20T03:31:02.126Z,100704.15
2024-01-20T03:33:33.650Z,100712.27
2024-01-20T03:36:05.871Z,100710.47
2024-01-20T03:38:37.486Z,100714.55
2024-01-20T03:41:09.493Z,100718.90
2024-01-20T03:43:41.185Z,100720.00
2024-01-20T03:46:12.883Z,100720.38
2024-01-20T03:48:44.547Z,100718.59
2024-01-20T03:51:17.003Z,100726.14
2024-01-20T03:53:48.682Z,100727.65
2024-01-20T03:56:20.220Z,100728.93
2024-01-20T03:58:51.830Z,100728.63
2024-01-20T04:01:24.260Z,100731.57
2024-01-20T04:03:55.837Z,100742.37
2024-01-20T04:06:27.696Z,100738.80
2024-01-20T04:08:59.341Z,100742.11
2024-01-20T04:11:31.339Z,100741.90
2024-01-20T04:14:02.777Z,100744.13
2024-01-20T04:16:34.432Z,100737.43
2024-01-20T04:19:05.953Z,100741.91
2024-01-20T04:21:37.898Z,100743.40
2024-01-20T04:24:09.877Z,100742.77
2024-01-20T04:26:41.535Z,100743.45
2024-01-20T04:29:13.064Z,100747.70
2024-01-20T04:31:44.658Z,100749.33
2024-01-20T04:34:16.306Z,100758.54
2024-01-20T04:36:48.002Z,100760.92
2024-01-20T04:39:19.717Z,100764.95
2024-01-20T04:41:51.946Z,100764.70
2024-01-20T04:44:24.458Z,100763.95
2024-01-20T04:46:56.010Z,100766.98
2024-01-20T04:49:27.670Z,100762.20
2024-01-20T04:52:03.412Z,100763.41
2024-01-20T04:54:34.837Z,100759.23
2024-01-20T04:57:07.222Z,100767.33
2024-01-20T04:59:38.717Z,100772.11
2024-01-20T05:02:10.971Z,100771.50
2024-01-20T05:04:42.700Z,100767.36
2024-01-20T05:07:14.830Z,100767.75
2024-01-20T05:09:46.537Z,100771.40
2024-01-20T05:12:18.358Z,100773.89
2024-01-20T05:14:49.967Z,100778.27
2024-01-20T05:17:21.548Z,100777.77
2024-01-20T05:19:53.387Z,100778.55
2024-01-20T05:22:25.238Z,100782.97
2024-01-20T05:24:56.808Z,100786.29
2024-01-20T05:27:29.389Z,100789.96
2024-01-20T05:30:01.006Z,100790.36
2024-01-20T05:32:32.795Z,100784.98
2024-01-20T05:35:04.893Z,100794.32
2024-01-20T05:37:36.507Z,100799.77
2024-01-20T05:40:10.083Z,100806.57
2024-01-20T05:42:41.736Z,100814.08
2024-01-20T05:45:15.434Z,100812.84
2024-01-20T05:47:47.411Z,100818.90
2024-01-20T05:50:19.110Z,100825.70
2024-01-20T05:52:51.354Z,100829.16
2024-01-20T05:55:22.901Z,100830.94
2024-01-20T05:57:54.895Z,100828.13
2024-01-20T06:00:26.693Z,100825.73
2024-01-20T06:02:58.605Z,100830.73
2024-01-20T06:05:30.629Z,100832.89
2024-01-20T06:08:02.198Z,100839.52
2024-01-20T06:10:33.737Z,100839.91
2024-01-20T06:13:05.652Z,100848.05
2024-01-20T06:15:37.473Z,100850.45
2024-01-20T06:18:09.483Z,100857.05
2024-01-20T06:20:41.171Z,100853.19
2024-01-20T06:23:12.928Z,100857.85
2024-01-20T06:25:45.093Z,100858.03
2024-01-20T06:28:16.624Z,100861.48
2024-01-20T06:30:50.875Z,100865.98
2024-01-20T06:33:22.794Z,100863.25
2024-01-20T06:35:54.493Z,100870.55
2024-01-20T06:38:26.374Z,100876.92
2024-01-20T06:40:57.995Z,100868.90
2024-01-20T06:43:29.739Z,100871.70
2024-01-20T06:46:02.202Z,100874.23
2024-01-20T06:48:35.642Z,100877.55
2024-01-20T06:51:10.670Z,100881.83
2024-01-20T06:53:42.691Z,100892.59
2024-01-20T06:56:15.159Z,100894.33
2024-01-20T06:58:46.786Z,100903.91
2024-01-20T07:01:19.090Z,100906.63
2024-01-20T07:03:50.813Z,100903.88
2024-01-20T07:06:26.566Z,100899.11
2024-01-20T07:08:57.065Z,100900.95
2024-01-20T07:11:28.981Z,100901.02
2024-01-20T07:14:00.693Z,100906.34
2024-01-20T07:16:32.254Z,100910.63
2024-01-20T07:19:03.986Z,100911.89
2024-01-20T07:21:36.063Z,100915.73
2024-01-20T07:24:08.253Z,100918.06
2024-01-20T07:26:41.069Z,100924.98
2024-01-20T07:29:14.317Z,100924.77
2024-01-20T07:31:45.818Z,100937.86
2024-01-20T07:34:17.714Z,100945.20
2024-01-20T07:36:49.458Z,100954.82
2024-01-20T07:39:21.030Z,100958.97
2024-01-20T07:41:52.640Z,100954.69
2024-01-20T07:44:24.431Z,100953.36
2024-01-20T07:46:56.033Z,100952.80
2024-01-20T07:49:28.021Z,100955.59
2024-01-20T07:51:59.748Z,100959.86
2024-01-20T07:54:31.444Z,100971.41
2024-01-20T07:57:03.198Z,100975.63
2024-01-20T07:59:34.853Z,100973.73
2024-01-20T08:02:07.029Z,100977.94
2024-01-20T08:04:38.815Z,100983.40
2024-01-20T08:07:10.823Z,100984.75
2024-01-20T08:09:42.980Z,100989.33
2024-01-20T08:12:14.767Z,100986.33
2024-01-20T08:14:46.375Z,100991.70
2024-01-20T08:17:18.366Z,100998.19
2024-01-20T08:19:50.524Z,100998.77
2024-01-20T08:22:23.090Z,100995.06
2024-01-20T08:24:54.630Z,100995.30
2024-01-20T08:27:26.161Z,100999.17
2024-01-20T08:29:57.932Z,100998.26
2024-01-20T08:32:30.137Z,101004.13
2024-01-20T08:35:05.002Z,101007.11
2024-01-20T08:37:36.886Z,101006.02
2024-01-20T08:40:10.744Z,101010.90
2024-01-20T08:42:42.250Z,101012.95
2024-01-20T08:45:14.740Z,101012.50
2024-01-20T08:47:47.258Z,101014.17
2024-01-20T08:50:19.496Z,101017.39
2024-01-20T08:52:51.395Z,101019.86
2024-01-20T08:55:23.777Z,101017.08
2024-01-20T08:57:58.046Z,101028.20
2024-01-20T09:00:30.255Z,101024.67
2024-01-20T09:03:02.057Z,101025.20
2024-01-20T09:05:38.218Z,101025.55
2024-01-20T09:08:11.605Z,101025.83
2024-01-20T09:10:43.654Z,101029.38
2024-01-20T09:13:15.559Z,101024.71
2024-01-20T09:15:47.361Z,101022.41
2024-01-20T09:18:21.687Z,101028.21
2024-01-20T09:20:53.866Z,101027.23
2024-01-20T09:23:25.692Z,101037.29
2024-01-20T09:25:57.391Z,101035.52
2024-01-20T09:28:29.082Z,101037.12
2024-01-20T09:31:00.914Z,101045.21
2024-01-20T09:33:33.720Z,101044.91
2024-01-20T09:36:06.070Z,101046.36
2024-01-20T09:38:37.825Z,101050.03
2024-01-20T09:41:11.200Z,101047.09
2024-01-20T09:43:43.154Z,101049.84
2024-01-20T09:46:15.010Z,101051.54
2024-01-20T09:48:47.540Z,101046.73
2024-01-20T09:51:25.864Z,101050.30
2024-01-20T09:54:00.825Z,101051.79
2024-01-20T09:56:33.366Z,101046.17
2024-01-20T09:59:06.349Z,101046.89
2024-01-20T10:01:40.189Z,101048.21
2024-01-20T10:04:14.529Z,101046.45
2024-01-20T10:06:46.826Z,101044.64
2024-01-20T10:09:18.747Z,101039.96
2024-01-20T10:11:50.788Z,101048.73
2024-01-20T10:14:22.575Z,101047.41
2024-01-20T10:16:54.302Z,101053.16
2024-01-20T10:19:26.229Z,101054.34
2024-01-20T10:21:58.273Z,101059.11
2024-01-20T10:24:30.192Z,101052.58
2024-01-20T10:27:03.390Z,101051.36
2024-01-20T10:29:35.313Z,101044.48
2024-01-20T10:32:09.407Z,101051.80
2024-01-20T10:34:41.347Z,101044.67
2024-01-20T10:37:14.953Z,101040.50
2024-01-20T10:39:47.834Z,101043.64
2024-01-20T10:42:20.947Z,101036.00
2024-01-20T10:45:00.754Z,101036.11
2024-01-20T10:47:37.197Z,101035.45
2024-01-20T10:50:11.056Z,101034.67
2024-01-20T10:52:43.396Z,101029.47
2024-01-20T10:55:17.008Z,101032.45
2024-01-20T10:57:50.222Z,101032.11
2024-01-20T11:00:23.648Z,101025.40
2024-01-20T11:02:56.009Z,101026.84
2024-01-20T11:05:29.566Z,101025.65
2024-01-20T11:08:06.854Z,101022.42
2024-01-20T11:10:48.780Z,101021.23
2024-01-20T11:13:20.545Z,101031.08
2024-01-20T11:15:54.220Z,101027.92
2024-01-20T11:18:28.190Z,101030.38
2024-01-20T11:21:05.122Z,101024.61
2024-01-20T11:23:37.309Z,101028.59
2024-01-20T11:26:15.153Z,101028.66
2024-01-20T11:28:48.523Z,101026.91
2024-01-20T11:31:23.660Z,101031.00
2024-01-20T11:33:55.932Z,101031.38
2024-01-20T11:36:31.256Z,101035.36
2024-01-20T11:39:04.873Z,101031.85
2024-01-20T11:41:36.959Z,101030.19
2024-01-20T11:44:09.450Z,101033.35
2024-01-20T11:46:41.830Z,101033.67
2024-01-20T11:49:13.861Z,101033.82
2024-01-20T11:51:46.053Z,101031.11
2024-01-20T11:54:18.221Z,101024.88
2024-01-20T11:56:57.703Z,101024.86
2024-01-20T11:59:29.859Z,101024.14
2024-01-20T12:02:02.200Z,101024.27
2024-01-20T12:04:34.044Z,101023.83
2024-01-20T12:07:05.986Z,101026.31
2024-01-20T12:09:37.972Z,101022.89
2024-01-20T12:12:10.860Z,101018.14
2024-01-20T12:14:45.459Z,101015.77
2024-01-20T12:17:17.432Z,101014.47
2024-01-20T12:19:49.385Z,101014.78
2024-01-20T12:22:21.205Z,101008.58
2024-01-20T12:24:55.549Z,101003.91
2024-01-20T12:27:28.390Z,100996.20
2024-01-20T12:30:00.099Z,100990.02
2024-01-20T12:32:32.210Z,100986.65
2024-01-20T12:35:04.157Z,100981.44
2024-01-20T12:37:35.867Z,100977.76
2024-01-20T12:40:09.678Z,100975.14
2024-01-20T12:42:41.987Z,100967.98
2024-01-20T12:45:14.318Z,100964.67
2024-01-20T12:47:45.987Z,100966.05
2024-01-20T12:50:18.187Z,100969.48
2024-01-20T12:52:51.119Z,100960.67
2024-01-20T12:55:22.975Z,100961.58
2024-01-20T12:57:54.630Z,100960.23
2024-01-20T13:00:26.846Z,100962.67
2024-01-20T13:02:58.800Z,100965.76
2024-01-20T13:05:31.000Z,100967.02
2024-01-20T13:08:03.187Z,100969.59
2024-01-20T13:10:35.464Z,100976.48
2024-01-20T13:13:07.370Z,100978.92
2024-01-20T13:15:39.191Z,100971.52
2024-01-20T13:18:10.971Z,100978.06
2024-01-20T13:20:42.997Z,100971.36
2024-01-20T13:23:15.912Z,100964.23
2024-01-20T13:25:48.633Z,100967.67
2024-01-20T13:28:21.164Z,100961.27
2024-01-20T13:30:52.996Z,100962.80
2024-01-20T13:33:26.436Z,100965.12
2024-01-20T13:35:58.710Z,100965.10
2024-01-20T13:38:30.456Z,100966.56
2024-01-20T13:41:02.214Z,100964.85
2024-01-20T13:43:33.950Z,100965.46
2024-01-20T13:46:06.327Z,100970.48
2024-01-20T13:48:38.014Z,100973.45
2024-01-20T13:51:09.902Z,100978.13
2024-01-20T13:53:41.743Z,100974.36
2024-01-20T13:56:14.367Z,100975.38
2024-01-20T13:58:46.850Z,100978.98
2024-01-20T14:01:23.108Z,100973.81
2024-01-20T14:03:55.434Z,100972.92
2024-01-20T14:06:27.548Z,100977.33
2024-01-20T14:08:59.616Z,100981.83
2024-01-20T14:11:32.080Z,100979.80
2024-01-20T14:14:04.093Z,100983.37
2024-01-20T14:16:36.091Z,100979.90
2024-01-20T14:19:09.111Z,100975.05
2024-01-20T14:21:41.449Z,100974.39
2024-01-20T14:24:13.602Z,100982.09
2024-01-20T14:26:46.120Z,100977.76
2024-01-20T14:29:17.897Z,100979.23
2024-01-20T14:31:50.877Z,100979.79
2024-01-20T14:34:23.671Z,100985.21
2024-01-20T14:36:57.286Z,100987.36
2024-01-20T14:39:28.998Z,100993.55
2024-01-20T14:42:00.845Z,100985.69
2024-01-20T14:44:32.635Z,100987.73
2024-01-20T14:47:04.526Z,100989.86
2024-01-20T14:49:36.345Z,100989.64
2024-01-20T14:52:09.630Z,100990.02
2024-01-20T14:54:41.346Z,100986.42
2024-01-20T14:57:13.564Z,100988.23
2024-01-20T14:59:45.075Z,100985.35
2024-01-20T15:02:17.259Z,100990.22
2024-01-20T15:04:48.931Z,100993.23
2024-01-20T15:07:22.141Z,100999.66
2024-01-20T15:09:53.900Z,101015.60
2024-01-20T15:12:26.025Z,101019.59
2024-01-20T15:14:57.762Z,101018.40
2024-01-20T15:17:30.411Z,101019.44
2024-01-20T15:20:02.213Z,101023.83
2024-01-20T15:22:34.048Z,101017.34
2024-01-20T15:25:07.121Z,101019.41
2024-01-20T15:27:41.430Z,101020.23
2024-01-20T15:30:15.139Z,101019.10
2024-01-20T15:32:46.832Z,101023.19
2024-01-20T15:35:18.683Z,101021.92
2024-01-20T15:37:50.474Z,101018.46
2024-01-20T15:40:22.256Z,101022.09
2024-01-20T15:42:54.213Z,101023.55
2024-01-20T15:45:26.285Z,101025.34
2024-01-20T15:47:58.461Z,101030.59
2024-01-20T15:50:30.119Z,101033.70
2024-01-20T15:53:01.789Z,101031.23
2024-01-20T15:55:33.737Z,101032.28
2024-01-20T15:58:06.024Z,101023.13
2024-01-20T16:00:37.700Z,101023.80
2024-01-20T16:03:09.991Z,101028.16
2024-01-20T16:05:41.906Z,101023.59
2024-01-20T16:08:14.367Z,101022.18
2024-01-20T16:10:46.522Z,101019.05
2024-01-20T16:13:18.635Z,101023.38
2024-01-20T16:15:50.480Z,101021.73
2024-01-20T16:18:22.477Z,101024.55
2024-01-20T16:20:54.240Z,101030.58
2024-01-20T16:23:26.026Z,101026.92
2024-01-20T16:25:57.814Z,101026.84
2024-01-20T16:28:32.502Z,101029.39
2024-01-20T16:31:05.810Z,101025.13
2024-01-20T16:33:37.511Z,101027.32
2024-01-20T16:36:12.184Z,101031.44
2024-01-20T16:38:44.177Z,101030.08
2024-01-20T16:41:16.437Z,101028.17
2024-01-20T16:43:48.395Z,101027.05
2024-01-20T16:46:20.293Z,101021.67
2024-01-20T16:48:52.165Z,101020.52
2024-01-20T16:51:27.382Z,101025.02
2024-01-20T16:53:59.610Z,101026.98
2024-01-20T16:56:31.430Z,101025.00
2024-01-20T16:59:03.858Z,101021.88
2024-01-20T17:01:35.594Z,101029.38
2024-01-20T17:04:08.441Z,101025.93
2024-01-20T17:06:40.455Z,101027.59
2024-01-20T17:09:14.699Z,101026.87
2024-01-20T17:11:48.355Z,101030.88
2024-01-20T17:14:20.518Z,101029.98
2024-01-20T17:16:52.923Z,101027.84
2024-01-20T17:19:28.135Z,101028.55
2024-01-20T17:22:00.124Z,101030.56
2024-01-20T17:24:34.778Z,101029.73
2024-01-20T17:27:07.692Z,101027.77
2024-01-20T17:29:40.015Z,101022.54
2024-01-20T17:32:11.800Z,101018.98
2024-01-20T17:34:44.393Z,101024.95
2024-01-20T17:37:16.512Z,101027.95
2024-01-20T17:39:48.521Z,101028.26
2024-01-20T17:42:21.132Z,101026.59
2024-01-20T17:44:52.914Z,101027.61
2024-01-20T17:47:24.759Z,101029.72
2024-01-20T17:49:56.632Z,101024.80
2024-01-20T17:52:28.735Z,101022.97
2024-01-20T17:55:01.411Z,101028.66
2024-01-20T17:57:33.190Z,101035.37
2024-01-20T18:00:07.907Z,101033.15
2024-01-20T18:02:40.909Z,101036.16
2024-01-20T18:05:14.493Z,101041.10
2024-01-20T18:07:51.306Z,101042.70
2024-01-20T18:10:23.685Z,101047.27
2024-01-20T18:12:55.907Z,101046.08
2024-01-20T18:15:28.068Z,101049.62
2024-01-20T18:17:59.803Z,101046.52
2024-01-20T18:20:31.689Z,101046.56
2024-01-20T18:23:03.507Z,101047.42
2024-01-20T18:25:35.624Z,101048.77
2024-01-20T18:28:08.411Z,101052.61
2024-01-20T18:30:40.517Z,101049.48
2024-01-20T18:33:12.830Z,101048.38
2024-01-20T18:35:44.905Z,101053.10
2024-01-20T18:38:16.897Z,101049.92
2024-01-20T18:40:49.040Z,101051.64
2024-01-20T18:43:21.048Z,101047.05
2024-01-20T18:45:52.849Z,101047.91
2024-01-20T18:48:25.390Z,101044.52
2024-01-20T18:50:57.367Z,101043.80
2024-01-20T18:53:29.150Z,101047.55
2024-01-20T18:56:01.152Z,101046.24
2024-01-20T18:58:34.167Z,101051.06
2024-01-20T19:01:06.625Z,101054.23
2024-01-20T19:03:38.825Z,101052.80
2024-01-20T19:06:11.012Z,101055.05
2024-01-20T19:08:42.717Z,101049.17
2024-01-20T19:11:14.547Z,101049.23
2024-01-20T19:13:46.201Z,101044.14
2024-01-20T19:16:18.476Z,101042.41
2024-01-20T19:18:50.877Z,101044.54
2024-01-20T19:21:22.837Z,101046.91
2024-01-20T19:23:55.192Z,101050.32
2024-01-20T19:26:27.474Z,101048.76
2024-01-20T19:28:59.216Z,101049.09
2024-01-20T19:31:31.168Z,101048.88
2024-01-20T19:34:04.434Z,101046.70
2024-01-20T19:36:36.700Z,101044.00
2024-01-20T19:39:09.729Z,101045.73
2024-01-20T19:41:41.499Z,101042.14
2024-01-20T19:44:13.110Z,101042.72
2024-01-20T19:46:45.453Z,101038.94
2024-01-20T19:49:19.598Z,101033.52
2024-01-20T19:51:51.896Z,101028.16
2024-01-20T19:54:23.742Z,101026.66
2024-01-20T19:56:55.579Z,101028.27
2024-01-20T19:59:27.587Z,101023.89
2024-01-20T20:01:59.267Z,101019.27
2024-01-20T20:04:31.172Z,101017.54
2024-01-20T20:07:10.005Z,101017.70
2024-01-20T20:09:42.034Z,101018.75
2024-01-20T20:12:13.924Z,101015.69
2024-01-20T20:14:45.932Z,101012.91
2024-01-20T20:17:18.784Z,101008.60
2024-01-20T20:19:50.489Z,101009.61
2024-01-20T20:22:22.848Z,101004.66
2024-01-20T20:24:54.548Z,100999.33
2024-01-20T20:27:26.646Z,101001.23
2024-01-20T20:29:59.901Z,100998.09
2024-01-20T20:32:32.009Z,100990.29
2024-01-20T20:35:04.530Z,100992.83
2024-01-20T20:37:36.297Z,100991.22
2024-01-20T20:40:11.521Z,100987.20
2024-01-20T20:42:43.484Z,100980.52
2024-01-20T20:45:16.740Z,100979.95
2024-01-20T20:47:48.931Z,100980.04
2024-01-20T20:50:20.849Z,100980.83
2024-01-20T20:52:53.282Z,100983.55
2024-01-20T20:55:25.151Z,100984.44
2024-01-20T20:57:57.048Z,100980.80
2024-01-20T21:00:28.944Z,100982.39
2024-01-20T21:03:01.385Z,100983.04
2024-01-20T21:05:33.517Z,100983.60
2024-01-20T21:08:06.157Z,100982.34
2024-01-20T21:10:38.840Z,100971.45
2024-01-20T21:13:11.554Z,100968.81
2024-01-20T21:15:43.972Z,100967.02
2024-01-20T21:18:16.240Z,100970.34
2024-01-20T21:20:48.853Z,100973.40
2024-01-20T21:23:21.139Z,100971.70
2024-01-20T21:25:54.767Z,100965.25
2024-01-20T21:28:27.200Z,100966.08
2024-01-20T21:31:01.551Z,100962.80
2024-01-20T21:33:33.787Z,100963.09
2024-01-20T21:36:06.621Z,100968.00
2024-01-20T21:38:38.945Z,100965.47
2024-01-20T21:41:11.118Z,100966.02
2024-01-20T21:43:42.807Z,100966.67
2024-01-20T21:46:14.903Z,100963.73
2024-01-20T21:48:47.089Z,100965.58
2024-01-20T21:51:18.999Z,100965.11
2024-01-20T21:53:51.048Z,100964.34
2024-01-20T21:56:22.886Z,100961.86
2024-01-20T21:58:55.758Z,100959.83
2024-01-20T22:01:27.696Z,100960.94
2024-01-20T22:03:59.656Z,100961.73
2024-01-20T22:06:32.260Z,100963.45
2024-01-20T22:09:06.383Z,100964.28
2024-01-20T22:11:38.642Z,100952.69
2024-01-20T22:14:10.432Z,100948.05
2024-01-20T22:16:42.591Z,100948.92
2024-01-20T22:19:15.661Z,100944.48
2024-01-20T22:21:48.366Z,100943.05
2024-01-20T22:24:20.508Z,100942.07
2024-01-20T22:26:52.555Z,100943.41
2024-01-20T22:29:30.993Z,100944.58
2024-01-20T22:32:04.925Z,100938.98
2024-01-20T22:34:37.454Z,100933.13
2024-01-20T22:37:09.219Z,100924.98
2024-01-20T22:39:41.566Z,100919.98
2024-01-20T22:42:13.466Z,100921.69
2024-01-20T22:44:45.317Z,100933.27
2024-01-20T22:47:17.910Z,100930.17
2024-01-20T22:49:50.967Z,100925.84
2024-01-20T22:52:23.032Z,100917.27
2024-01-20T22:54:54.820Z,100907.81
2024-01-20T22:57:26.710Z,100906.54
2024-01-20T22:59:58.544Z,100902.41
2024-01-20T23:02:31.401Z,100906.97
2024-01-20T23:05:03.048Z,100907.55
2024-01-20T23:07:34.864Z,100911.16
2024-01-20T23:10:09.461Z,100904.40
2024-01-20T23:12:41.270Z,100901.45
2024-01-20T23:15:13.815Z,100904.98
2024-01-20T23:17:45.695Z,100911.16
2024-01-20T23:20:18.269Z,100913.45
2024-01-20T23:22:50.040Z,100912.45
2024-01-20T23:25:21.700Z,100909.84
2024-01-20T23:27:53.400Z,100911.61
2024-01-20T23:30:31.192Z,100906.91
2024-01-20T23:33:03.184Z,100894.90
2024-01-20T23:35:35.782Z,100882.17
2024-01-20T23:38:09.402Z,100878.54
2024-01-20T23:40:41.027Z,100874.95
2024-01-20T23:43:12.630Z,100875.54
2024-01-20T23:45:44.354Z,100878.33
2024-01-20T23:48:16.155Z,100874.58
2024-01-20T23:50:49.202Z,100873.08
2024-01-20T23:53:21.041Z,100864.52
2024-01-20T23:55:52.768Z,100868.58
2024-01-20T23:58:25.128Z,100869.33
